Time;durP1;ratioP1;P1;durP2;ratioP2;P2;SDS_P1;SDS_P2;PMS_P1;PMS_P2;Temp;Humidity;BMP_temperature;BMP_pressure;BME280_temperature;BME280_humidity;BME280_pressure;Samples;Min_cycle;Max_cycle;Signal;HPM_P1;HPM_P2
2022/01/23 00:00:05;;;;;;;51.80;21.98;;;;;;;;;;5083943;28;20036;-83
2022/01/23 00:02:34;;;;;;;43.42;21.70;;;;;;;;;;5081629;28;20020;-82
2022/01/23 00:05:07;;;;;;;46.83;22.05;;;;;;;;;;5082537;28;20055;-83
2022/01/23 00:07:34;;;;;;;54.67;23.77;;;;;;;;;;5081853;28;20523;-82
2022/01/23 00:10:01;;;;;;;48.88;23.42;;;;;;;;;;5081592;28;20024;-82
2022/01/23 00:12:31;;;;;;;52.65;23.20;;;;;;;;;;5081740;28;20017;-82
2022/01/23 00:17:42;;;;;;;55.25;25.60;;;;;;;;;;5069510;28;20039;-83
2022/01/23 00:20:11;;;;;;;53.75;23.25;;;;;;;;;;5080678;28;20486;-83
2022/01/23 00:22:42;;;;;;;53.97;23.15;;;;;;;;;;5080893;28;20032;-82
2022/01/23 00:30:41;;;;;;;59.63;23.90;;;;;;;;;;5080052;28;20059;-81
2022/01/23 00:33:08;;;;;;;59.00;25.27;;;;;;;;;;5060505;28;20064;-83
2022/01/23 00:35:34;;;;;;;54.00;24.40;;;;;;;;;;5058882;28;20531;-82
2022/01/23 00:38:01;;;;;;;51.83;24.10;;;;;;;;;;5058823;28;20087;-83
2022/01/23 00:40:29;;;;;;;49.58;23.15;;;;;;;;;;5079215;28;20492;-82
2022/01/23 00:42:56;;;;;;;54.42;25.05;;;;;;;;;;5080429;28;20054;-83
2022/01/23 00:45:32;;;;;;;54.75;25.27;;;;;;;;;;5084889;28;20043;-83
2022/01/23 00:48:06;;;;;;;57.63;24.88;;;;;;;;;;5091575;28;20056;-81
2022/01/23 00:50:38;;;;;;;56.40;24.40;;;;;;;;;;5061011;28;20052;-82
2022/01/23 00:53:08;;;;;;;62.90;25.48;;;;;;;;;;5076545;28;20024;-83
2022/01/23 00:55:34;;;;;;;60.50;27.17;;;;;;;;;;5081347;28;20032;-83
2022/01/23 00:58:00;;;;;;;50.45;24.92;;;;;;;;;;5079941;28;20040;-83
2022/01/23 01:00:26;;;;;;;52.38;24.33;;;;;;;;;;5079963;28;20023;-82
2022/01/23 01:02:52;;;;;;;54.40;24.55;;;;;;;;;;5079418;28;20459;-82
2022/01/23 01:05:18;;;;;;;56.97;24.55;;;;;;;;;;5077328;28;20379;-81
2022/01/23 01:07:44;;;;;;;57.85;24.00;;;;;;;;;;5077274;28;20405;-82
2022/01/23 01:10:26;;;;;;;63.58;26.08;;;;;;;;;;5080060;28;20040;-81
2022/01/23 01:12:57;;;;;;;64.10;26.63;;;;;;;;;;5081221;28;20078;-83
2022/01/23 01:31:46;;;;;;;62.42;24.13;;;;;;;;;;5080068;28;20040;-82
2022/01/23 01:34:19;;;;;;;56.28;24.73;;;;;;;;;;5094569;28;20021;-82
2022/01/23 01:36:47;;;;;;;46.97;21.92;;;;;;;;;;5093130;28;20100;-82
2022/01/23 01:39:15;;;;;;;62.38;26.58;;;;;;;;;;5087985;28;20082;-83
2022/01/23 01:41:42;;;;;;;58.45;25.52;;;;;;;;;;5084139;28;20028;-83
2022/01/23 01:44:08;;;;;;;63.38;27.27;;;;;;;;;;5084939;28;20020;-81
2022/01/23 01:46:34;;;;;;;65.03;25.80;;;;;;;;;;5085528;28;20105;-82
2022/01/23 01:49:00;;;;;;;65.18;26.05;;;;;;;;;;5085546;28;20032;-81
2022/01/23 01:51:32;;;;;;;60.15;26.92;;;;;;;;;;5084585;28;20020;-83
2022/01/23 01:54:06;;;;;;;56.33;25.13;;;;;;;;;;5083076;28;20031;-82
2022/01/23 01:56:39;;;;;;;67.50;25.38;;;;;;;;;;5091490;28;20032;-83
2022/01/23 02:09:37;;;;;;;60.95;25.25;;;;;;;;;;5082228;28;20048;-83
2022/01/23 02:12:49;;;;;;;57.92;25.80;;;;;;;;;;5083217;28;20544;-81
2022/01/23 02:55:10;;;;;;;65.82;25.83;;;;;;;;;;5082648;28;20029;-81
2022/01/23 03:00:19;;;;;;;56.83;25.20;;;;;;;;;;5082955;28;20041;-80
2022/01/23 03:02:51;;;;;;;62.22;25.08;;;;;;;;;;5083309;28;20037;-82
2022/01/23 03:08:03;;;;;;;60.88;26.58;;;;;;;;;;5081120;28;20473;-81
2022/01/23 03:10:42;;;;;;;57.90;26.05;;;;;;;;;;5059419;28;20524;-81
2022/01/23 03:24:27;;;;;;;63.65;25.80;;;;;;;;;;5078064;28;20063;-82
2022/01/23 03:29:25;;;;;;;59.95;25.48;;;;;;;;;;5076852;28;20029;-82
2022/01/23 03:34:18;;;;;;;63.10;27.63;;;;;;;;;;5077660;28;20067;-80
2022/01/23 03:36:44;;;;;;;67.93;26.00;;;;;;;;;;5076140;28;20049;-82
2022/01/23 03:39:13;;;;;;;64.25;26.83;;;;;;;;;;5077139;28;20039;-81
2022/01/23 03:41:41;;;;;;;57.97;25.73;;;;;;;;;;5077662;28;20024;-82
2022/01/23 03:44:08;;;;;;;55.67;25.00;;;;;;;;;;5077852;28;20025;-81
2022/01/23 03:49:35;;;;;;;60.30;24.65;;;;;;;;;;5077668;28;20064;-82
2022/01/23 03:51:53;;;;;;;54.95;23.92;;;;;;;;;;5075437;28;20028;-81
2022/01/23 03:54:19;;;;;;;53.45;23.85;;;;;;;;;;5077178;28;20017;-81
2022/01/23 03:56:45;;;;;;;58.58;23.23;;;;;;;;;;5076862;28;20472;-81
2022/01/23 03:59:11;;;;;;;54.45;23.20;;;;;;;;;;5076115;28;20384;-82
2022/01/23 04:01:37;;;;;;;61.97;26.65;;;;;;;;;;5085378;28;20044;-82
2022/01/23 04:04:10;;;;;;;54.40;23.10;;;;;;;;;;5076302;28;20030;-82
2022/01/23 04:06:37;;;;;;;54.35;24.35;;;;;;;;;;5071698;28;20028;-82
2022/01/23 04:09:03;;;;;;;51.05;22.60;;;;;;;;;;5074147;28;20033;-82
2022/01/23 04:11:29;;;;;;;54.47;22.35;;;;;;;;;;5074312;28;20028;-83
2022/01/23 04:14:04;;;;;;;58.78;24.48;;;;;;;;;;5074367;28;20104;-81
2022/01/23 04:17:02;;;;;;;57.25;23.58;;;;;;;;;;5065591;28;20424;-81
2022/01/23 04:59:56;;;;;;;55.50;24.20;;;;;;;;;;5078034;28;20062;-83
2022/01/23 05:05:08;;;;;;;60.53;25.60;;;;;;;;;;5080957;28;20087;-83
2022/01/23 05:07:34;;;;;;;65.32;25.67;;;;;;;;;;5076505;28;20115;-82
2022/01/23 05:10:00;;;;;;;62.10;26.35;;;;;;;;;;5074671;28;20534;-83
2022/01/23 05:12:31;;;;;;;60.22;24.73;;;;;;;;;;5076157;28;20088;-83
2022/01/23 05:14:57;;;;;;;62.65;25.65;;;;;;;;;;5075953;28;20104;-82
2022/01/23 05:17:23;;;;;;;56.15;24.05;;;;;;;;;;5076417;28;20039;-82
2022/01/23 05:19:49;;;;;;;70.20;28.00;;;;;;;;;;5074883;28;20036;-82
2022/01/23 05:24:48;;;;;;;55.78;24.92;;;;;;;;;;5076328;28;20032;-82
2022/01/23 05:27:14;;;;;;;63.85;26.25;;;;;;;;;;5076225;28;20029;-82
2022/01/23 05:29:40;;;;;;;54.78;23.75;;;;;;;;;;5076047;28;20051;-82
2022/01/23 05:32:08;;;;;;;61.25;25.60;;;;;;;;;;5076313;28;20028;-82
2022/01/23 05:34:34;;;;;;;57.47;24.75;;;;;;;;;;5073483;28;20395;-83
2022/01/23 05:37:00;;;;;;;53.97;23.25;;;;;;;;;;5075535;28;20036;-82
2022/01/23 05:39:31;;;;;;;56.90;24.17;;;;;;;;;;5074881;28;20675;-82
2022/01/23 05:42:04;;;;;;;55.55;24.42;;;;;;;;;;5075355;28;20028;-81
2022/01/23 05:44:30;;;;;;;53.17;21.83;;;;;;;;;;5088785;28;20088;-82
2022/01/23 05:46:56;;;;;;;49.15;22.05;;;;;;;;;;5089839;28;20047;-83
2022/01/23 05:49:22;;;;;;;53.22;21.05;;;;;;;;;;5084873;28;20024;-83
2022/01/23 05:51:48;;;;;;;52.17;20.27;;;;;;;;;;5082248;28;20024;-83
2022/01/23 05:54:15;;;;;;;53.30;23.00;;;;;;;;;;5080344;28;20032;-82
2022/01/23 05:56:41;;;;;;;49.35;20.73;;;;;;;;;;5080805;28;20039;-83
2022/01/23 05:59:07;;;;;;;51.63;20.83;;;;;;;;;;5078848;28;20056;-82
2022/01/23 06:01:33;;;;;;;51.72;19.45;;;;;;;;;;5080097;28;20055;-82
2022/01/23 06:03:59;;;;;;;48.67;20.15;;;;;;;;;;5079861;28;20103;-83
2022/01/23 06:06:25;;;;;;;42.63;19.40;;;;;;;;;;5078883;28;20037;-82
2022/01/23 06:08:51;;;;;;;50.40;21.73;;;;;;;;;;5083147;28;20491;-81
2022/01/23 06:11:17;;;;;;;46.38;21.17;;;;;;;;;;5073872;28;20021;-82
2022/01/23 06:13:43;;;;;;;49.40;21.70;;;;;;;;;;5074449;28;20450;-81
2022/01/23 06:16:09;;;;;;;51.53;21.05;;;;;;;;;;5073667;28;20066;-82
2022/01/23 06:18:38;;;;;;;56.13;22.70;;;;;;;;;;5061161;28;20064;-82
2022/01/23 06:21:04;;;;;;;47.90;21.38;;;;;;;;;;5057025;28;20064;-81
2022/01/23 06:23:31;;;;;;;48.90;20.35;;;;;;;;;;5070319;28;20029;-82
2022/01/23 06:25:57;;;;;;;43.28;20.30;;;;;;;;;;5075672;28;20055;-83
2022/01/23 06:28:33;;;;;;;44.70;20.17;;;;;;;;;;5077459;28;20130;-82
2022/01/23 06:30:59;;;;;;;40.85;19.00;;;;;;;;;;5078209;28;20503;-83
2022/01/23 06:33:26;;;;;;;49.75;19.20;;;;;;;;;;5084866;28;20024;-82
2022/01/23 06:35:52;;;;;;;48.78;19.88;;;;;;;;;;5084241;28;20028;-82
2022/01/23 06:38:18;;;;;;;44.72;20.58;;;;;;;;;;5083694;28;20040;-83
2022/01/23 06:40:44;;;;;;;50.58;22.15;;;;;;;;;;5083785;28;20039;-83
2022/01/23 06:43:10;;;;;;;46.92;20.17;;;;;;;;;;5081760;28;20029;-82
2022/01/23 06:45:36;;;;;;;42.30;20.35;;;;;;;;;;5081612;28;20036;-83
2022/01/23 06:48:03;;;;;;;38.20;18.02;;;;;;;;;;5082355;28;20084;-82
2022/01/23 06:50:28;;;;;;;39.50;18.90;;;;;;;;;;5083523;28;20024;-82
2022/01/23 06:52:54;;;;;;;44.80;20.02;;;;;;;;;;5078226;28;20037;-83
2022/01/23 06:55:21;;;;;;;39.55;18.70;;;;;;;;;;5080609;28;20028;-83
2022/01/23 06:57:47;;;;;;;48.30;20.85;;;;;;;;;;5080110;28;20025;-81
2022/01/23 07:00:13;;;;;;;47.33;20.17;;;;;;;;;;5079189;28;20123;-82
2022/01/23 07:02:39;;;;;;;45.50;20.05;;;;;;;;;;5078419;28;20020;-79
2022/01/23 07:05:05;;;;;;;51.03;21.95;;;;;;;;;;5079624;28;20451;-80
2022/01/23 07:07:31;;;;;;;48.42;19.73;;;;;;;;;;5079231;28;20088;-84
2022/01/23 07:09:57;;;;;;;43.03;19.52;;;;;;;;;;5073805;28;20044;-83
2022/01/23 07:12:23;;;;;;;51.97;19.52;;;;;;;;;;5068049;28;20028;-84
2022/01/23 07:14:49;;;;;;;47.63;19.20;;;;;;;;;;5078940;28;20468;-83
2022/01/23 07:17:15;;;;;;;42.97;20.00;;;;;;;;;;5065199;28;20047;-85
2022/01/23 07:19:41;;;;;;;38.30;19.10;;;;;;;;;;5069441;28;20115;-83
2022/01/23 07:22:07;;;;;;;42.53;19.20;;;;;;;;;;5057950;28;20068;-83
2022/01/23 07:24:33;;;;;;;49.35;21.08;;;;;;;;;;5057886;28;20094;-84
2022/01/23 07:27:01;;;;;;;44.08;19.10;;;;;;;;;;5057492;28;20673;-81
2022/01/23 07:29:28;;;;;;;42.55;19.50;;;;;;;;;;5057836;28;20501;-84
2022/01/23 07:32:00;;;;;;;;;;;;;;;;;;;;;
2022/01/23 07:34:22;;;;;;;41.40;18.67;;;;;;;;;;5075616;28;20024;-83
2022/01/23 07:36:48;;;;;;;46.30;19.75;;;;;;;;;;5074618;28;20033;-84
2022/01/23 07:39:14;;;;;;;40.00;19.10;;;;;;;;;;5073733;28;20032;-83
2022/01/23 07:41:41;;;;;;;45.45;20.15;;;;;;;;;;5073696;28;20032;-83
2022/01/23 07:44:07;;;;;;;44.38;18.33;;;;;;;;;;5063034;28;20404;-83
2022/01/23 07:46:33;;;;;;;39.75;17.70;;;;;;;;;;5053686;28;20032;-84
2022/01/23 07:48:59;;;;;;;40.83;18.85;;;;;;;;;;5072194;28;20025;-84
2022/01/23 07:51:25;;;;;;;45.25;19.45;;;;;;;;;;5075183;28;20079;-84
2022/01/23 07:53:51;;;;;;;42.92;18.38;;;;;;;;;;5072885;28;20029;-83
2022/01/23 07:56:18;;;;;;;39.20;18.25;;;;;;;;;;5075083;28;20029;-83
2022/01/23 07:58:44;;;;;;;42.15;18.17;;;;;;;;;;5074614;28;20033;-83
2022/01/23 08:01:10;;;;;;;43.50;18.27;;;;;;;;;;5075485;28;20027;-83
2022/01/23 08:03:36;;;;;;;42.03;18.35;;;;;;;;;;5074661;28;20017;-84
2022/01/23 08:06:02;;;;;;;44.00;18.50;;;;;;;;;;5072699;28;20027;-83
2022/01/23 08:08:28;;;;;;;43.85;19.60;;;;;;;;;;5075681;28;20063;-83
2022/01/23 08:10:54;;;;;;;37.00;17.35;;;;;;;;;;5076342;28;20037;-84
2022/01/23 08:13:20;;;;;;;41.17;19.80;;;;;;;;;;5075942;28;20082;-83
2022/01/23 08:15:46;;;;;;;41.53;18.38;;;;;;;;;;5094860;28;20064;-80
2022/01/23 08:18:12;;;;;;;38.42;18.50;;;;;;;;;;5069521;28;20031;-81
2022/01/23 08:20:38;;;;;;;39.65;17.75;;;;;;;;;;5059147;28;20088;-83
2022/01/23 08:23:05;;;;;;;36.58;16.95;;;;;;;;;;5070317;28;20100;-83
2022/01/23 08:25:31;;;;;;;37.88;17.27;;;;;;;;;;5079682;28;20020;-84
2022/01/23 08:27:58;;;;;;;34.08;17.40;;;;;;;;;;5077540;28;20024;-83
2022/01/23 08:30:24;;;;;;;38.85;17.98;;;;;;;;;;5078116;28;20035;-82
2022/01/23 08:32:50;;;;;;;39.25;18.05;;;;;;;;;;5070170;28;20067;-83
2022/01/23 08:35:16;;;;;;;39.90;17.25;;;;;;;;;;5064020;28;20029;-82
2022/01/23 08:37:43;;;;;;;36.17;17.42;;;;;;;;;;5074164;28;20037;-82
2022/01/23 08:40:18;;;;;;;32.65;16.27;;;;;;;;;;5064661;28;20387;-82
2022/01/23 08:42:45;;;;;;;35.70;15.48;;;;;;;;;;5076548;28;20159;-83
2022/01/23 08:45:11;;;;;;;35.97;16.17;;;;;;;;;;5079325;28;20035;-82
2022/01/23 08:47:38;;;;;;;34.95;16.55;;;;;;;;;;5077620;28;20365;-81
2022/01/23 08:50:04;;;;;;;36.83;17.70;;;;;;;;;;5077134;28;20449;-83
2022/01/23 08:52:30;;;;;;;36.40;16.88;;;;;;;;;;5077792;28;20488;-82
2022/01/23 08:54:56;;;;;;;33.03;16.63;;;;;;;;;;5076782;28;20095;-81
2022/01/23 08:57:23;;;;;;;35.55;15.93;;;;;;;;;;5076349;28;20025;-82
2022/01/23 08:59:50;;;;;;;30.52;16.15;;;;;;;;;;5075590;28;20119;-83
2022/01/23 09:02:16;;;;;;;32.60;14.38;;;;;;;;;;5076273;28;20039;-83
2022/01/23 09:04:43;;;;;;;31.25;14.68;;;;;;;;;;5077008;28;20037;-83
2022/01/23 09:07:09;;;;;;;33.47;14.90;;;;;;;;;;5080309;28;20048;-83
2022/01/23 09:09:37;;;;;;;31.17;15.88;;;;;;;;;;5073836;28;20039;-84
2022/01/23 09:14:41;;;;;;;29.08;13.27;;;;;;;;;;5056188;28;20056;-81
2022/01/23 09:17:07;;;;;;;33.17;14.82;;;;;;;;;;5071959;28;20032;-82
2022/01/23 09:19:33;;;;;;;24.80;13.02;;;;;;;;;;5075659;28;20020;-79
2022/01/23 09:22:00;;;;;;;27.15;14.15;;;;;;;;;;5046158;28;20399;-78
2022/01/23 09:24:26;;;;;;;27.52;13.18;;;;;;;;;;5068457;28;20032;-81
2022/01/23 09:26:54;;;;;;;28.00;13.82;;;;;;;;;;5072655;28;20032;-78
2022/01/23 09:29:30;;;;;;;27.98;13.20;;;;;;;;;;5072555;28;20111;-80
2022/01/23 09:31:57;;;;;;;24.00;12.43;;;;;;;;;;5054003;28;20067;-78
2022/01/23 09:34:24;;;;;;;23.75;13.07;;;;;;;;;;5054414;28;20484;-80
2022/01/23 09:36:50;;;;;;;26.42;11.85;;;;;;;;;;5056082;28;20577;-83
2022/01/23 09:39:17;;;;;;;22.27;11.43;;;;;;;;;;5072574;28;20060;-78
2022/01/23 09:41:48;;;;;;;22.95;12.15;;;;;;;;;;5072979;28;20431;-78
2022/01/23 09:44:16;;;;;;;20.65;11.30;;;;;;;;;;5074072;28;20061;-80
2022/01/23 09:46:43;;;;;;;22.23;11.10;;;;;;;;;;5073947;28;20029;-79
2022/01/23 09:49:11;;;;;;;24.77;11.68;;;;;;;;;;5059613;28;20039;-84
2022/01/23 09:51:41;;;;;;;24.48;11.93;;;;;;;;;;5075524;28;20017;-81
2022/01/23 09:54:07;;;;;;;22.73;10.90;;;;;;;;;;5063902;28;20028;-80
2022/01/23 09:56:35;;;;;;;18.90;9.85;;;;;;;;;;5039916;28;20102;-78
2022/01/23 09:59:01;;;;;;;18.95;10.95;;;;;;;;;;5038969;28;20021;-79
2022/01/23 10:01:27;;;;;;;19.33;10.88;;;;;;;;;;5065722;28;20032;-79
2022/01/23 10:03:53;;;;;;;20.85;10.20;;;;;;;;;;5077992;28;20041;-79
2022/01/23 10:06:20;;;;;;;20.80;11.18;;;;;;;;;;5077355;28;20557;-81
2022/01/23 10:08:47;;;;;;;22.02;11.52;;;;;;;;;;5058497;28;20094;-80
2022/01/23 10:11:14;;;;;;;20.77;10.90;;;;;;;;;;5076468;28;20037;-80
2022/01/23 10:13:42;;;;;;;17.13;9.43;;;;;;;;;;5060110;28;20037;-79
2022/01/23 10:16:08;;;;;;;23.00;10.90;;;;;;;;;;5075855;28;20103;-79
2022/01/23 10:18:34;;;;;;;20.15;11.60;;;;;;;;;;5059630;28;20599;-80
2022/01/23 10:21:00;;;;;;;19.02;10.52;;;;;;;;;;5074476;28;20056;-81
2022/01/23 10:23:27;;;;;;;21.80;10.23;;;;;;;;;;5062499;28;20059;-79
2022/01/23 10:25:54;;;;;;;17.80;10.27;;;;;;;;;;5061191;28;20029;-81
2022/01/23 10:28:22;;;;;;;19.50;10.27;;;;;;;;;;5079094;28;20028;-78
2022/01/23 10:30:50;;;;;;;17.15;9.77;;;;;;;;;;5080434;28;20108;-83
2022/01/23 10:33:19;;;;;;;18.38;9.70;;;;;;;;;;5061452;28;20031;-82
2022/01/23 10:36:00;;;;;;;18.25;8.85;;;;;;;;;;5061219;28;20045;-82
2022/01/23 10:38:30;;;;;;;19.03;9.73;;;;;;;;;;5061491;28;20020;-83
2022/01/23 10:41:06;;;;;;;19.20;10.20;;;;;;;;;;5078995;28;20407;-77
2022/01/23 10:46:47;;;;;;;21.63;9.95;;;;;;;;;;5006235;28;20052;-80
2022/01/23 10:49:13;;;;;;;18.75;9.38;;;;;;;;;;5052885;28;20035;-81
2022/01/23 10:51:39;;;;;;;17.98;10.25;;;;;;;;;;5059307;28;20025;-81
2022/01/23 10:54:14;;;;;;;19.52;9.57;;;;;;;;;;5075824;28;20392;-81
2022/01/23 10:56:49;;;;;;;19.02;9.70;;;;;;;;;;5075471;28;20457;-81
2022/01/23 10:59:16;;;;;;;22.63;9.77;;;;;;;;;;5058849;28;20091;-81
2022/01/23 11:02:00;;;;;;;18.63;9.68;;;;;;;;;;5077852;28;20107;-81
2022/01/23 11:04:26;;;;;;;16.88;9.18;;;;;;;;;;5058178;28;20029;-82
2022/01/23 11:07:07;;;;;;;21.38;10.23;;;;;;;;;;5072217;28;20035;-82
2022/01/23 11:09:36;;;;;;;18.58;9.82;;;;;;;;;;5082660;28;20028;-83
2022/01/23 11:12:12;;;;;;;18.27;10.65;;;;;;;;;;5079583;28;20027;-82
2022/01/23 11:17:26;;;;;;;18.98;10.52;;;;;;;;;;5077769;28;20063;-82
2022/01/23 11:19:55;;;;;;;16.85;9.90;;;;;;;;;;5078781;28;20031;-83
2022/01/23 11:22:26;;;;;;;16.98;9.43;;;;;;;;;;5078083;28;20029;-83
2022/01/23 11:24:56;;;;;;;16.83;9.40;;;;;;;;;;5078296;28;20033;-83
2022/01/23 11:27:22;;;;;;;18.13;9.73;;;;;;;;;;5077663;28;20032;-81
2022/01/23 11:29:53;;;;;;;15.90;9.38;;;;;;;;;;5077799;28;20027;-80
2022/01/23 11:32:20;;;;;;;19.17;9.30;;;;;;;;;;5077186;28;20025;-81
2022/01/23 11:34:46;;;;;;;19.95;10.07;;;;;;;;;;5077713;28;20068;-82
2022/01/23 11:37:15;;;;;;;16.05;8.70;;;;;;;;;;5076614;28;20055;-81
2022/01/23 11:39:54;;;;;;;21.10;10.60;;;;;;;;;;5077538;28;20039;-80
2022/01/23 11:56:48;;;;;;;17.40;9.07;;;;;;;;;;5079922;28;20085;-83
2022/01/23 11:59:31;;;;;;;20.45;9.70;;;;;;;;;;5078925;28;20055;-82
2022/01/23 12:02:14;;;;;;;17.10;8.23;;;;;;;;;;5060799;28;20046;-81
2022/01/23 12:04:40;;;;;;;19.00;9.43;;;;;;;;;;5078967;28;20076;-81
2022/01/23 12:07:14;;;;;;;19.25;9.68;;;;;;;;;;5078521;28;20032;-82
2022/01/23 12:09:45;;;;;;;20.80;10.45;;;;;;;;;;5076876;28;20044;-82
2022/01/23 12:18:12;;;;;;;17.00;9.23;;;;;;;;;;5057249;28;20514;-83
2022/01/23 12:20:38;;;;;;;16.95;9.38;;;;;;;;;;5057181;28;20056;-83
2022/01/23 12:23:04;;;;;;;18.00;9.63;;;;;;;;;;5077469;28;20053;-81
2022/01/23 12:25:39;;;;;;;17.33;9.32;;;;;;;;;;5077036;28;20124;-82
2022/01/23 12:28:28;;;;;;;15.88;8.15;;;;;;;;;;5076598;28;20025;-81
2022/01/23 12:30:59;;;;;;;18.65;9.50;;;;;;;;;;5076832;28;20109;-81
2022/01/23 12:33:29;;;;;;;16.95;9.65;;;;;;;;;;5076624;28;20548;-81
2022/01/23 12:36:06;;;;;;;19.17;9.57;;;;;;;;;;5058585;28;20036;-79
2022/01/23 12:38:37;;;;;;;14.85;8.50;;;;;;;;;;5076804;28;20028;-81
2022/01/23 12:41:03;;;;;;;;;;;;;;;;;;5076327;28;20488;-81
2022/01/23 12:43:36;;;;;;;20.40;10.23;;;;;;;;;;5075893;28;19908;-81
2022/01/23 12:46:05;;;;;;;16.60;9.55;;;;;;;;;;5087184;28;20020;-80
2022/01/23 12:48:38;;;;;;;16.45;9.18;;;;;;;;;;5093893;28;20052;-80
2022/01/23 12:51:07;;;;;;;19.35;9.95;;;;;;;;;;5094210;28;20035;-82
2022/01/23 12:53:59;;;;;;;16.88;9.95;;;;;;;;;;5094318;28;20072;-82
2022/01/23 12:56:30;;;;;;;16.77;9.05;;;;;;;;;;5052858;28;20039;-83
2022/01/23 12:59:08;;;;;;;16.02;8.70;;;;;;;;;;5077881;28;20044;-82
2022/01/23 13:01:34;;;;;;;14.57;8.50;;;;;;;;;;5059549;28;20395;-82
2022/01/23 13:04:02;;;;;;;16.05;9.48;;;;;;;;;;5058931;28;20021;-82
2022/01/23 13:06:32;;;;;;;17.77;8.63;;;;;;;;;;5062061;28;20026;-83
2022/01/23 13:09:15;;;;;;;18.30;9.68;;;;;;;;;;5085010;28;20075;-80
2022/01/23 13:14:48;;;;;;;21.63;8.88;;;;;;;;;;5055326;28;20412;-81
2022/01/23 13:26:22;;;;;;;17.27;8.48;;;;;;;;;;5077025;28;20037;-83
2022/01/23 13:30:48;;;;;;;17.65;8.73;;;;;;;;;;5080219;28;20021;-81
2022/01/23 13:33:20;;;;;;;15.07;8.15;;;;;;;;;;5080265;28;20024;-81
2022/01/23 13:35:51;;;;;;;16.02;8.43;;;;;;;;;;5080299;28;20023;-81
2022/01/23 13:38:17;;;;;;;13.98;7.90;;;;;;;;;;5079417;28;20031;-81
2022/01/23 13:40:44;;;;;;;18.42;8.63;;;;;;;;;;5061992;28;20111;-81
2022/01/23 13:59:55;;;;;;;17.27;8.57;;;;;;;;;;5079490;28;20089;-80
2022/01/23 14:02:26;;;;;;;16.05;8.75;;;;;;;;;;5078541;28;20036;-80
2022/01/23 14:05:08;;;;;;;17.00;9.32;;;;;;;;;;5079527;28;20025;-79
2022/01/23 14:07:34;;;;;;;20.65;9.65;;;;;;;;;;5078505;28;20024;-80
2022/01/23 14:10:10;;;;;;;16.73;9.00;;;;;;;;;;5059229;28;20035;-81
2022/01/23 14:12:36;;;;;;;15.88;9.40;;;;;;;;;;5060029;28;20808;-80
2022/01/23 14:15:07;;;;;;;16.77;8.40;;;;;;;;;;5078359;28;20541;-82
2022/01/23 14:17:39;;;;;;;16.92;8.93;;;;;;;;;;5077775;28;20048;-79
2022/01/23 14:20:05;;;;;;;14.95;8.73;;;;;;;;;;5078324;28;20039;-81
2022/01/23 14:22:33;;;;;;;18.73;9.13;;;;;;;;;;5077943;28;20178;-81
2022/01/23 14:25:08;;;;;;;13.23;7.35;;;;;;;;;;5059545;28;20058;-82
2022/01/23 14:27:34;;;;;;;15.85;8.48;;;;;;;;;;5077651;28;20391;-82
2022/01/23 14:30:03;;;;;;;13.57;7.05;;;;;;;;;;5077945;28;20020;-80
2022/01/23 14:32:41;;;;;;;11.15;7.00;;;;;;;;;;5059344;28;20020;-81
2022/01/23 14:35:08;;;;;;;12.00;7.32;;;;;;;;;;5078005;28;20496;-81
2022/01/23 14:37:35;;;;;;;13.20;7.28;;;;;;;;;;5077994;28;20112;-80
2022/01/23 14:40:16;;;;;;;13.68;7.80;;;;;;;;;;5060167;28;20025;-83
2022/01/23 14:42:58;;;;;;;13.90;7.97;;;;;;;;;;5077884;28;20029;-81
2022/01/23 14:45:24;;;;;;;12.27;7.38;;;;;;;;;;5082659;28;20020;-81
2022/01/23 14:47:51;;;;;;;13.73;7.22;;;;;;;;;;5061347;28;20032;-82
2022/01/23 14:50:19;;;;;;;17.52;7.53;;;;;;;;;;5079350;28;20085;-81
2022/01/23 14:52:48;;;;;;;13.07;7.93;;;;;;;;;;5061211;28;20025;-82
2022/01/23 14:55:14;;;;;;;16.00;6.93;;;;;;;;;;5078364;28;20427;-83
2022/01/23 14:57:40;;;;;;;16.63;7.55;;;;;;;;;;5078449;28;20104;-79
2022/01/23 15:00:08;;;;;;;17.67;8.82;;;;;;;;;;5078696;28;20377;-79
2022/01/23 15:02:34;;;;;;;12.90;7.90;;;;;;;;;;5077752;28;20019;-83
2022/01/23 15:05:02;;;;;;;14.48;7.28;;;;;;;;;;5061616;28;20021;-83
2022/01/23 15:07:34;;;;;;;13.25;7.57;;;;;;;;;;5079851;28;20024;-80
2022/01/23 15:10:00;;;;;;;13.23;7.28;;;;;;;;;;5092896;28;20024;-81
2022/01/23 15:12:26;;;;;;;12.05;7.30;;;;;;;;;;5081590;28;20032;-83
2022/01/23 15:14:52;;;;;;;13.07;7.63;;;;;;;;;;5063076;28;20054;-82
2022/01/23 15:17:20;;;;;;;13.30;7.15;;;;;;;;;;5081589;28;20029;-80
2022/01/23 15:19:46;;;;;;;12.10;6.68;;;;;;;;;;5081724;28;20029;-80
2022/01/23 15:22:12;;;;;;;13.75;7.47;;;;;;;;;;5066647;28;20028;-79
2022/01/23 15:24:38;;;;;;;17.48;7.93;;;;;;;;;;5085645;28;20031;-82
2022/01/23 15:27:05;;;;;;;12.98;6.97;;;;;;;;;;5079992;28;20021;-82
2022/01/23 15:29:31;;;;;;;12.50;7.22;;;;;;;;;;5061976;28;20021;-82
2022/01/23 15:31:57;;;;;;;14.52;7.53;;;;;;;;;;5079838;28;20031;-81
2022/01/23 15:34:23;;;;;;;13.32;6.85;;;;;;;;;;5079636;28;20080;-80
2022/01/23 15:36:52;;;;;;;18.80;7.75;;;;;;;;;;5082790;28;20029;-81
2022/01/23 15:39:18;;;;;;;13.98;7.70;;;;;;;;;;5078470;28;20046;-81
2022/01/23 15:41:44;;;;;;;18.45;8.05;;;;;;;;;;5077485;28;20032;-79
2022/01/23 15:44:11;;;;;;;18.02;8.80;;;;;;;;;;5058714;28;20160;-78
2022/01/23 15:46:37;;;;;;;18.42;8.18;;;;;;;;;;5060112;28;20052;-80
2022/01/23 15:49:04;;;;;;;16.90;8.77;;;;;;;;;;5061221;28;20025;-79
2022/01/23 15:51:30;;;;;;;17.55;8.70;;;;;;;;;;5069459;28;20051;-78
2022/01/23 15:53:56;;;;;;;14.43;8.30;;;;;;;;;;5073190;28;20021;-78
2022/01/23 15:56:22;;;;;;;17.40;8.80;;;;;;;;;;5069923;28;20025;-81
2022/01/23 15:58:48;;;;;;;18.75;9.13;;;;;;;;;;5061830;28;20120;-79
2022/01/23 16:01:14;;;;;;;18.27;9.65;;;;;;;;;;5061132;28;20032;-80
2022/01/23 16:03:40;;;;;;;17.23;9.68;;;;;;;;;;5074521;28;20029;-82
2022/01/23 16:06:06;;;;;;;17.88;9.18;;;;;;;;;;5077285;28;20373;-80
2022/01/23 16:08:32;;;;;;;20.13;9.50;;;;;;;;;;5070028;28;20123;-82
2022/01/23 16:11:00;;;;;;;18.65;8.52;;;;;;;;;;5060938;28;20032;-81
2022/01/23 16:13:27;;;;;;;18.40;10.00;;;;;;;;;;5076846;28;20413;-82
2022/01/23 16:15:53;;;;;;;18.92;10.00;;;;;;;;;;5061322;28;20024;-82
2022/01/23 16:18:19;;;;;;;19.58;9.50;;;;;;;;;;5077959;28;20093;-81
2022/01/23 16:20:45;;;;;;;19.75;10.10;;;;;;;;;;5079932;28;20088;-82
2022/01/23 16:23:11;;;;;;;18.98;9.55;;;;;;;;;;5079581;28;20523;-84
2022/01/23 16:25:37;;;;;;;20.50;9.48;;;;;;;;;;5077504;28;20104;-83
2022/01/23 16:28:03;;;;;;;21.25;9.48;;;;;;;;;;5078449;28;20083;-83
2022/01/23 16:30:41;;;;;;;21.83;10.00;;;;;;;;;;5078036;28;20468;-83
2022/01/23 16:33:07;;;;;;;20.20;9.63;;;;;;;;;;5059591;28;20056;-83
2022/01/23 16:35:33;;;;;;;21.75;10.48;;;;;;;;;;5064537;28;20076;-83
2022/01/23 16:37:59;;;;;;;18.95;9.43;;;;;;;;;;5055627;28;20410;-83
2022/01/23 16:40:25;;;;;;;23.35;9.88;;;;;;;;;;5049052;28;20036;-83
2022/01/23 16:42:51;;;;;;;19.98;10.02;;;;;;;;;;5057696;28;20032;-82
2022/01/23 16:45:17;;;;;;;24.27;10.85;;;;;;;;;;5057482;28;20079;-83
2022/01/23 16:47:46;;;;;;;17.33;9.55;;;;;;;;;;5075309;28;20051;-83
2022/01/23 16:50:12;;;;;;;22.00;10.73;;;;;;;;;;5075314;28;20019;-81
2022/01/23 16:52:38;;;;;;;15.38;8.52;;;;;;;;;;5074571;28;20044;-81
2022/01/23 16:55:05;;;;;;;18.38;8.98;;;;;;;;;;5056444;28;20021;-82
2022/01/23 16:57:31;;;;;;;20.30;9.32;;;;;;;;;;5075059;28;20040;-82
2022/01/23 16:59:57;;;;;;;20.63;10.32;;;;;;;;;;5057473;28;20040;-80
2022/01/23 17:02:23;;;;;;;16.40;9.30;;;;;;;;;;5075732;28;20024;-81
2022/01/23 17:04:49;;;;;;;17.67;9.02;;;;;;;;;;5075764;28;20387;-81
2022/01/23 17:07:15;;;;;;;19.88;9.00;;;;;;;;;;5056676;28;20119;-80
2022/01/23 17:09:41;;;;;;;18.02;9.13;;;;;;;;;;5075966;28;20036;-81
2022/01/23 17:12:07;;;;;;;19.08;9.57;;;;;;;;;;5058406;28;20028;-80
2022/01/23 17:14:33;;;;;;;15.82;8.15;;;;;;;;;;5076466;28;20021;-84
2022/01/23 17:16:59;;;;;;;19.92;9.50;;;;;;;;;;5080871;28;20033;-82
2022/01/23 17:19:26;;;;;;;18.65;9.23;;;;;;;;;;5079962;28;20027;-82
2022/01/23 17:21:52;;;;;;;19.08;9.07;;;;;;;;;;5080731;28;20028;-81
2022/01/23 17:24:18;;;;;;;16.55;8.77;;;;;;;;;;5079395;28;20052;-81
2022/01/23 17:26:43;;;;;;;16.15;8.52;;;;;;;;;;5078613;28;20024;-81
2022/01/23 17:29:10;;;;;;;19.48;8.63;;;;;;;;;;5060336;28;20063;-82
2022/01/23 17:31:36;;;;;;;14.80;8.20;;;;;;;;;;5060173;28;20457;-85
2022/01/23 17:34:02;;;;;;;16.08;8.48;;;;;;;;;;5057552;28;20031;-83
2022/01/23 17:36:28;;;;;;;16.45;8.52;;;;;;;;;;5057065;28;20074;-82
2022/01/23 17:38:54;;;;;;;17.10;8.35;;;;;;;;;;5057734;28;20020;-83
2022/01/23 17:41:20;;;;;;;16.45;9.30;;;;;;;;;;5056901;28;20488;-81
2022/01/23 17:43:47;;;;;;;16.15;8.68;;;;;;;;;;5056645;28;20028;-81
2022/01/23 17:46:20;;;;;;;21.25;8.57;;;;;;;;;;5073619;28;20107;-82
2022/01/23 17:49:32;;;;;;;15.85;7.95;;;;;;;;;;5074201;28;20029;-81
2022/01/23 17:51:39;;;;;;;18.17;7.53;;;;;;;;;;5071063;28;20016;-81
2022/01/23 17:54:05;;;;;;;17.10;9.10;;;;;;;;;;5073541;28;20424;-81